Time;durP1;ratioP1;P1;durP2;ratioP2;P2;SDS_P1;SDS_P2;PMS_P1;PMS_P2;Temp;Humidity;BMP_temperature;BMP_pressure;BME280_temperature;BME280_humidity;BME280_pressure;Samples;Min_cycle;Max_cycle;Signal;HPM_P1;HPM_P2
2022/05/06 00:02:10;;;;;;;6.20;3.60;;;20.10;60.30;;;;;;5047128;28;20463;-61
2022/05/06 00:04:36;;;;;;;6.90;3.90;;;20.10;60.30;;;;;;5040955;28;20096;-60
2022/05/06 00:07:02;;;;;;;5.85;3.53;;;20.10;60.40;;;;;;5047694;28;20025;-61
2022/05/06 00:09:28;;;;;;;6.13;3.40;;;20.10;60.40;;;;;;5037815;28;20041;-61
2022/05/06 00:11:54;;;;;;;6.10;3.60;;;20.10;60.30;;;;;;5037221;28;20025;-60
2022/05/06 00:14:19;;;;;;;5.82;3.65;;;20.10;60.40;;;;;;5042064;28;20029;-60
2022/05/06 00:16:45;;;;;;;5.15;3.13;;;20.10;60.40;;;;;;5038740;28;20318;-60
2022/05/06 00:19:11;;;;;;;5.82;3.50;;;20.10;60.40;;;;;;5043319;28;20595;-61
2022/05/06 00:21:36;;;;;;;5.05;3.20;;;20.10;60.30;;;;;;5048197;28;20075;-61
2022/05/06 00:24:03;;;;;;;5.45;3.30;;;20.10;60.30;;;;;;5038284;28;20115;-60
2022/05/06 00:26:30;;;;;;;6.65;3.47;;;20.00;60.40;;;;;;5044024;28;20030;-60
2022/05/06 00:28:55;;;;;;;5.45;3.38;;;20.00;60.30;;;;;;5052185;28;20029;-61
2022/05/06 00:31:21;;;;;;;6.32;3.72;;;20.00;60.30;;;;;;5044097;28;20025;-61
2022/05/06 00:33:48;;;;;;;5.90;3.40;;;20.00;60.40;;;;;;5041909;28;20036;-60
2022/05/06 00:36:14;;;;;;;5.93;3.53;;;20.00;60.30;;;;;;5041039;28;20025;-61
2022/05/06 00:38:42;;;;;;;5.55;3.30;;;20.00;60.30;;;;;;5037376;28;20486;-60
2022/05/06 00:41:08;;;;;;;6.50;3.50;;;20.00;60.30;;;;;;5038783;28;20058;-60
2022/05/06 00:43:33;;;;;;;5.63;3.38;;;20.00;60.30;;;;;;5036179;28;20030;-61
2022/05/06 00:45:59;;;;;;;6.80;3.38;;;20.00;60.40;;;;;;5048568;28;20614;-61
2022/05/06 00:48:28;;;;;;;7.38;3.42;;;20.00;60.40;;;;;;5041843;28;20032;-60
2022/05/06 00:50:56;;;;;;;6.47;3.13;;;20.00;60.50;;;;;;5033943;28;20021;-61
2022/05/06 00:53:22;;;;;;;5.53;3.40;;;20.00;60.40;;;;;;5047628;28;20116;-60
2022/05/06 00:55:47;;;;;;;6.15;3.40;;;20.00;60.40;;;;;;5044523;28;20100;-60
2022/05/06 00:58:13;;;;;;;5.82;3.45;;;20.00;60.40;;;;;;5066766;28;20135;-61
2022/05/06 01:00:39;;;;;;;5.18;3.40;;;20.00;60.30;;;;;;5069102;28;20034;-60
2022/05/06 01:03:04;;;;;;;5.50;3.30;;;19.90;60.40;;;;;;5035310;28;20311;-61
2022/05/06 01:05:30;;;;;;;6.35;3.63;;;19.90;60.30;;;;;;5035379;28;20469;-60
2022/05/06 01:07:56;;;;;;;6.10;3.60;;;19.90;60.30;;;;;;5034038;28;20491;-60
2022/05/06 01:10:22;;;;;;;6.30;3.40;;;19.90;60.30;;;;;;5072373;28;20118;-61
2022/05/06 01:12:48;;;;;;;5.32;3.20;;;19.90;60.30;;;;;;5037814;28;20021;-60
2022/05/06 01:15:25;;;;;;;5.50;3.20;;;19.90;60.30;;;;;;5039711;28;20074;-60
2022/05/06 01:17:51;;;;;;;5.13;3.15;;;19.90;60.20;;;;;;5030440;28;20064;-61
2022/05/06 01:20:17;;;;;;;5.10;3.10;;;19.90;60.20;;;;;;5037968;28;20080;-60
2022/05/06 01:22:50;;;;;;;6.10;3.13;;;19.90;60.30;;;;;;5046355;28;20017;-60
2022/05/06 01:25:16;;;;;;;5.20;3.25;;;19.90;60.20;;;;;;5047349;28;20032;-60
2022/05/06 01:27:55;;;;;;;5.18;3.00;;;19.80;60.20;;;;;;5038514;28;20125;-60
2022/05/06 01:30:38;;;;;;;5.75;3.42;;;19.90;60.20;;;;;;5031888;28;20456;-60
2022/05/06 01:33:08;;;;;;;5.45;3.20;;;19.80;60.20;;;;;;5038634;28;20026;-60
2022/05/06 01:35:57;;;;;;;5.28;3.55;;;19.80;60.20;;;;;;5034799;28;20151;-60
2022/05/06 01:38:46;;;;;;;6.88;3.50;;;19.80;60.20;;;;;;5042933;28;20017;-60
2022/05/06 01:41:26;;;;;;;5.25;3.40;;;19.80;60.20;;;;;;5047590;28;20074;-61
2022/05/06 01:44:01;;;;;;;5.57;3.00;;;19.80;60.20;;;;;;5048943;28;20025;-61
2022/05/06 01:46:28;;;;;;;5.45;3.33;;;19.80;60.20;;;;;;5044529;28;20102;-61
2022/05/06 01:48:53;;;;;;;5.43;3.35;;;19.80;60.20;;;;;;5044566;28;20021;-61
2022/05/06 01:51:20;;;;;;;5.38;3.25;;;19.80;60.20;;;;;;5032353;28;20559;-61
2022/05/06 01:53:45;;;;;;;6.03;3.45;;;19.80;60.30;;;;;;5031953;28;20028;-60
2022/05/06 01:56:11;;;;;;;4.78;3.15;;;19.70;60.20;;;;;;5036916;28;20033;-61
2022/05/06 01:58:37;;;;;;;5.45;3.17;;;19.80;60.30;;;;;;5041878;28;20571;-60
2022/05/06 02:01:03;;;;;;;5.80;3.40;;;19.80;60.30;;;;;;5039247;28;20088;-61
2022/05/06 02:06:13;;;;;;;5.03;3.20;;;19.80;60.40;;;;;;5046807;28;20031;-60
2022/05/06 02:08:38;;;;;;;5.60;3.30;;;19.70;60.30;;;;;;5036453;28;20029;-60
2022/05/06 02:11:05;;;;;;;5.65;3.50;;;19.70;60.30;;;;;;5042397;28;20040;-60
2022/05/06 02:13:33;;;;;;;6.20;3.30;;;19.70;60.30;;;;;;5042396;28;20552;-60
2022/05/06 02:15:59;;;;;;;5.80;3.53;;;19.70;60.40;;;;;;5038637;28;20060;-60
2022/05/06 02:18:26;;;;;;;6.47;3.88;;;19.70;60.30;;;;;;5034197;28;20502;-61
2022/05/06 02:20:53;;;;;;;5.70;3.30;;;19.70;60.40;;;;;;5035026;28;20037;-60
2022/05/06 02:23:19;;;;;;;5.65;3.08;;;19.70;60.40;;;;;;5041860;28;20512;-60
2022/05/06 02:25:45;;;;;;;5.22;3.00;;;19.70;60.40;;;;;;5044965;28;20053;-61
2022/05/06 02:28:14;;;;;;;5.63;3.47;;;19.70;60.40;;;;;;5038705;28;20112;-60
2022/05/06 02:33:24;;;;;;;5.47;3.30;;;19.60;60.40;;;;;;5035088;28;20020;-60
2022/05/06 02:35:51;;;;;;;5.30;3.47;;;19.70;60.50;;;;;;5044090;28;20029;-60
2022/05/06 02:38:17;;;;;;;6.38;3.42;;;19.60;60.50;;;;;;5034698;28;20544;-60
2022/05/06 02:40:42;;;;;;;5.63;3.45;;;19.60;60.50;;;;;;5038146;28;20028;-61
2022/05/06 02:43:08;;;;;;;6.13;3.47;;;19.60;60.50;;;;;;5048827;28;20033;-60
2022/05/06 02:45:34;;;;;;;5.82;3.63;;;19.60;60.50;;;;;;5039910;28;20423;-60
2022/05/06 02:48:00;;;;;;;5.88;3.50;;;19.60;60.60;;;;;;5034075;28;20115;-60
2022/05/06 02:50:26;;;;;;;6.35;3.60;;;19.60;60.60;;;;;;5037422;28;20045;-60
2022/05/06 02:52:52;;;;;;;5.13;3.30;;;19.60;60.60;;;;;;5039250;28;20402;-60
2022/05/06 02:55:17;;;;;;;6.05;3.50;;;19.60;60.60;;;;;;5041322;28;20033;-60
2022/05/06 02:57:43;;;;;;;6.47;3.55;;;19.60;60.60;;;;;;5040820;28;20025;-61
2022/05/06 03:00:09;;;;;;;5.45;3.25;;;19.60;60.70;;;;;;5036238;28;20041;-60
2022/05/06 03:02:35;;;;;;;5.88;3.80;;;19.60;60.70;;;;;;5035205;28;20075;-60
2022/05/06 03:05:01;;;;;;;7.57;4.00;;;19.60;60.70;;;;;;5043355;28;21097;-60
2022/05/06 03:07:26;;;;;;;5.90;3.58;;;19.60;61.10;;;;;;5041834;28;20325;-60
2022/05/06 03:09:52;;;;;;;6.78;3.67;;;19.60;60.70;;;;;;5033454;28;20029;-60
2022/05/06 03:12:19;;;;;;;6.18;3.65;;;19.60;60.70;;;;;;5046559;28;20058;-61
2022/05/06 03:14:45;;;;;;;5.43;3.45;;;19.50;60.70;;;;;;5034551;28;20029;-60
2022/05/06 03:17:11;;;;;;;5.47;3.45;;;19.60;60.70;;;;;;5043424;28;20033;-60
2022/05/06 03:19:37;;;;;;;5.18;3.60;;;19.50;60.70;;;;;;5040190;28;20026;-60
2022/05/06 03:22:03;;;;;;;6.47;3.88;;;19.50;60.80;;;;;;5042320;28;20447;-61
2022/05/06 03:24:29;;;;;;;5.57;3.50;;;19.50;60.80;;;;;;5046482;28;20049;-61
2022/05/06 03:26:55;;;;;;;8.77;3.83;;;19.50;60.80;;;;;;5039704;28;20489;-61
2022/05/06 03:29:20;;;;;;;6.93;3.72;;;19.50;60.80;;;;;;5037437;28;20548;-61
2022/05/06 03:31:46;;;;;;;6.05;3.75;;;19.50;60.90;;;;;;5042980;28;20025;-61
2022/05/06 03:34:12;;;;;;;6.03;3.42;;;19.50;60.90;;;;;;5049975;28;20457;-60
2022/05/06 03:36:38;;;;;;;6.50;3.92;;;19.50;61.00;;;;;;5037921;28;20056;-60
2022/05/06 03:39:04;;;;;;;5.47;3.58;;;19.50;61.00;;;;;;5039684;28;20039;-60
2022/05/06 03:41:30;;;;;;;5.85;3.50;;;19.50;60.90;;;;;;5076439;28;20029;-60
2022/05/06 03:43:56;;;;;;;6.00;3.42;;;19.50;61.10;;;;;;5041367;28;20036;-60
2022/05/06 03:46:22;;;;;;;5.60;3.38;;;19.50;61.10;;;;;;5034812;28;20486;-60
2022/05/06 03:48:47;;;;;;;5.55;3.60;;;19.40;61.00;;;;;;5044689;28;20028;-60
2022/05/06 03:51:22;;;;;;;5.05;3.13;;;19.40;61.10;;;;;;5037199;28;20056;-60
2022/05/06 03:53:52;;;;;;;6.50;3.50;;;19.40;61.10;;;;;;5037574;28;20026;-60
2022/05/06 03:56:19;;;;;;;6.22;3.42;;;19.40;61.10;;;;;;5042804;28;20056;-60
2022/05/06 03:58:45;;;;;;;5.20;3.35;;;19.40;61.10;;;;;;5042254;28;20701;-60
2022/05/06 04:01:11;;;;;;;7.30;4.07;;;19.50;61.10;;;;;;5065443;28;20017;-60
2022/05/06 04:03:37;;;;;;;5.95;3.63;;;19.40;61.10;;;;;;5033946;28;20040;-60
2022/05/06 04:06:03;;;;;;;6.85;3.47;;;19.40;61.20;;;;;;5035069;28;20524;-60
2022/05/06 04:08:28;;;;;;;6.68;3.90;;;19.40;61.40;;;;;;5038372;28;20064;-60
2022/05/06 04:10:54;;;;;;;6.28;3.85;;;19.40;61.30;;;;;;5040340;28;20114;-60
2022/05/06 04:13:20;;;;;;;6.82;3.80;;;19.40;61.40;;;;;;5039039;28;20072;-60
2022/05/06 04:15:46;;;;;;;6.25;3.80;;;19.40;61.40;;;;;;5038435;28;20108;-60
2022/05/06 04:18:12;;;;;;;6.97;4.07;;;19.40;61.30;;;;;;5036429;28;20134;-60
2022/05/06 04:23:32;;;;;;;6.03;4.00;;;19.30;61.70;;;;;;5041107;28;20505;-59
2022/05/06 04:25:59;;;;;;;6.03;3.72;;;19.40;61.60;;;;;;5040779;28;20148;-60
2022/05/06 04:28:26;;;;;;;7.07;4.03;;;19.40;61.40;;;;;;5041067;28;20402;-60
2022/05/06 04:30:52;;;;;;;8.07;4.40;;;19.30;61.40;;;;;;5043348;28;20028;-60
2022/05/06 04:33:18;;;;;;;7.07;3.85;;;19.40;61.50;;;;;;5041958;28;20252;-60
2022/05/06 04:35:46;;;;;;;7.28;3.95;;;19.30;61.50;;;;;;5033006;28;20025;-60
2022/05/06 04:38:11;;;;;;;6.82;3.55;;;19.30;61.30;;;;;;5037210;28;20104;-60
2022/05/06 04:40:38;;;;;;;6.10;4.10;;;19.30;61.40;;;;;;5044091;28;20047;-60
2022/05/06 04:43:03;;;;;;;5.95;3.80;;;19.30;61.40;;;;;;5043261;28;20033;-60
2022/05/06 04:45:29;;;;;;;6.65;3.63;;;19.30;61.40;;;;;;5049882;28;20402;-60
2022/05/06 04:47:55;;;;;;;6.93;4.00;;;19.30;61.20;;;;;;5033691;28;20035;-60
2022/05/06 04:50:21;;;;;;;6.25;3.88;;;19.30;61.40;;;;;;5039270;28;20523;-60
2022/05/06 04:52:47;;;;;;;6.35;3.90;;;19.30;61.50;;;;;;5047059;28;20498;-60
2022/05/06 04:55:12;;;;;;;6.25;3.67;;;19.30;61.30;;;;;;5047087;28;20116;-60
2022/05/06 04:57:38;;;;;;;5.18;3.25;;;19.30;61.30;;;;;;5039434;28;20052;-60
2022/05/06 05:00:04;;;;;;;9.02;3.85;;;19.30;61.30;;;;;;5034312;28;20498;-60
2022/05/06 05:02:30;;;;;;;7.50;3.85;;;19.30;61.00;;;;;;5038862;28;20100;-61
2022/05/06 05:04:59;;;;;;;7.95;4.07;;;19.30;61.20;;;;;;5036971;28;20441;-60
2022/05/06 05:07:25;;;;;;;8.38;3.97;;;19.30;61.40;;;;;;5048820;28;20022;-60
2022/05/06 05:09:50;;;;;;;8.05;3.65;;;19.30;62.20;;;;;;5037400;28;20184;-60
2022/05/06 05:12:16;;;;;;;6.90;3.67;;;19.30;61.80;;;;;;5032523;28;20456;-60
2022/05/06 05:14:42;;;;;;;6.97;3.85;;;19.30;61.80;;;;;;5042528;28;20021;-61
2022/05/06 05:17:09;;;;;;;9.18;4.40;;;19.30;62.00;;;;;;5037481;28;20072;-60
2022/05/06 05:19:35;;;;;;;9.85;4.65;;;19.30;62.30;;;;;;5042604;28;20055;-61
2022/05/06 05:22:01;;;;;;;12.75;4.32;;;19.30;62.50;;;;;;5042272;28;20489;-60
2022/05/06 05:24:27;;;;;;;8.48;4.10;;;19.30;63.30;;;;;;5040530;28;20063;-61
2022/05/06 05:26:54;;;;;;;8.82;4.13;;;19.30;63.00;;;;;;5040349;28;20026;-60
2022/05/06 05:29:19;;;;;;;10.40;4.20;;;19.30;63.00;;;;;;5037500;28;20047;-60
2022/05/06 05:31:45;;;;;;;10.43;4.05;;;19.30;63.00;;;;;;5039486;28;20477;-60
2022/05/06 05:34:11;;;;;;;13.00;4.43;;;19.30;62.90;;;;;;5040510;28;20125;-61
2022/05/06 05:36:37;;;;;;;8.90;4.40;;;19.30;63.00;;;;;;5033781;28;20354;-61
2022/05/06 05:39:02;;;;;;;11.15;4.50;;;19.30;63.20;;;;;;5034382;28;20112;-60
2022/05/06 05:41:29;;;;;;;11.57;4.15;;;19.30;63.00;;;;;;5037842;28;20028;-61
2022/05/06 05:49:23;;;;;;;8.60;4.18;;;19.20;62.80;;;;;;5043622;28;20301;-61
2022/05/06 05:51:50;;;;;;;9.88;3.88;;;19.20;62.80;;;;;;5041436;28;20694;-61
2022/05/06 05:54:16;;;;;;;11.90;4.22;;;19.30;62.90;;;;;;5036315;28;20390;-61
2022/05/06 05:56:42;;;;;;;10.13;4.10;;;19.20;62.80;;;;;;5032504;28;20068;-61
2022/05/06 05:59:07;;;;;;;7.47;4.05;;;19.20;62.80;;;;;;5041045;28;20025;-61
2022/05/06 06:01:33;;;;;;;8.40;4.15;;;19.20;62.70;;;;;;5036250;28;20127;-61
2022/05/06 06:03:59;;;;;;;8.25;3.50;;;19.20;62.70;;;;;;5048237;28;20132;-61
2022/05/06 06:06:24;;;;;;;14.95;4.10;;;19.20;62.80;;;;;;5035858;28;20053;-61
2022/05/06 06:08:50;;;;;;;8.85;4.10;;;19.20;62.70;;;;;;5029326;28;20042;-61
2022/05/06 06:11:17;;;;;;;9.35;4.20;;;19.20;62.70;;;;;;5038438;28;20120;-61
2022/05/06 06:13:43;;;;;;;11.60;4.13;;;19.20;62.70;;;;;;5045597;28;20144;-61
2022/05/06 06:16:09;;;;;;;10.65;3.70;;;19.20;62.80;;;;;;5039310;28;20032;-61
2022/05/06 06:18:34;;;;;;;10.30;4.07;;;19.20;62.70;;;;;;5038628;28;20025;-61
2022/05/06 06:21:00;;;;;;;8.50;3.80;;;19.20;62.70;;;;;;5031961;28;20039;-61
2022/05/06 06:23:26;;;;;;;10.80;4.15;;;19.20;62.80;;;;;;5037406;28;20071;-61
2022/05/06 06:25:51;;;;;;;7.30;3.60;;;19.20;62.70;;;;;;5044545;28;20115;-61
2022/05/06 06:28:17;;;;;;;7.28;3.92;;;19.20;62.80;;;;;;5045418;28;20094;-61
2022/05/06 06:30:43;;;;;;;9.45;4.07;;;19.20;62.80;;;;;;5042443;28;20409;-61
2022/05/06 06:33:08;;;;;;;11.45;4.10;;;19.20;62.80;;;;;;5034078;28;20572;-61
2022/05/06 06:35:34;;;;;;;8.95;3.90;;;19.10;62.70;;;;;;5035906;28;20037;-61
2022/05/06 06:38:00;;;;;;;9.27;3.88;;;19.10;62.70;;;;;;5037225;28;20049;-61
2022/05/06 06:40:26;;;;;;;10.18;4.00;;;19.20;63.80;;;;;;5038165;28;20548;-61
2022/05/06 06:42:52;;;;;;;10.40;3.72;;;19.10;62.70;;;;;;5045030;28;20036;-61
2022/05/06 06:45:17;;;;;;;8.35;3.67;;;19.10;62.70;;;;;;5037714;28;20057;-61
2022/05/06 06:47:43;;;;;;;11.18;4.15;;;19.10;62.80;;;;;;5042420;28;20398;-61
2022/05/06 06:50:09;;;;;;;9.77;4.13;;;19.10;62.70;;;;;;5035940;28;20037;-61
2022/05/06 06:52:35;;;;;;;7.97;3.65;;;19.10;62.70;;;;;;5046885;28;20487;-61
2022/05/06 06:55:01;;;;;;;8.13;3.90;;;19.10;62.70;;;;;;5044564;28;20480;-61
2022/05/06 06:57:30;;;;;;;8.50;3.50;;;19.10;62.70;;;;;;5039889;28;20040;-61
2022/05/06 06:59:55;;;;;;;8.77;3.67;;;19.10;62.70;;;;;;5039812;28;20022;-61
2022/05/06 07:02:21;;;;;;;8.65;4.00;;;19.10;62.90;;;;;;5047584;28;20056;-61
2022/05/06 07:04:47;;;;;;;9.85;3.47;;;19.10;62.90;;;;;;5047043;28;20647;-61
2022/05/06 07:12:42;;;;;;;9.52;3.72;;;19.10;62.80;;;;;;5042981;28;20044;-61
2022/05/06 07:15:08;;;;;;;9.90;3.80;;;19.10;62.80;;;;;;5037829;28;20030;-61
2022/05/06 07:17:34;;;;;;;8.98;4.00;;;19.10;62.90;;;;;;5038784;28;20032;-61
2022/05/06 07:20:00;;;;;;;9.45;4.20;;;19.10;62.90;;;;;;5044089;28;20041;-61
2022/05/06 07:22:25;;;;;;;7.93;3.72;;;19.10;62.90;;;;;;5048876;28;20036;-61
2022/05/06 07:24:51;;;;;;;9.10;4.00;;;19.10;63.00;;;;;;5047325;28;20020;-61
2022/05/06 07:27:18;;;;;;;10.20;4.05;;;19.10;63.00;;;;;;5045195;28;20035;-61
2022/05/06 07:29:44;;;;;;;8.88;3.90;;;19.10;63.00;;;;;;5043081;28;20036;-61
2022/05/06 07:32:10;;;;;;;9.73;3.92;;;19.10;63.00;;;;;;5047777;28;20383;-61
2022/05/06 07:34:36;;;;;;;7.18;3.78;;;19.10;63.00;;;;;;5041525;28;20104;-61
2022/05/06 07:37:02;;;;;;;7.70;3.85;;;19.10;62.90;;;;;;5035343;28;20163;-61
2022/05/06 07:39:27;;;;;;;9.30;4.20;;;19.10;63.00;;;;;;5041358;28;20103;-61
2022/05/06 07:41:53;;;;;;;8.00;3.60;;;19.10;63.10;;;;;;5037887;28;20475;-61
2022/05/06 07:44:19;;;;;;;8.77;3.58;;;19.10;63.10;;;;;;5049382;28;20156;-61
2022/05/06 07:46:45;;;;;;;7.80;3.83;;;19.10;63.10;;;;;;5040531;28;20029;-61
2022/05/06 07:49:10;;;;;;;8.27;4.13;;;19.10;63.10;;;;;;5039463;28;20391;-61
2022/05/06 07:51:36;;;;;;;9.27;3.90;;;19.10;63.10;;;;;;5040996;28;20028;-61
2022/05/06 07:54:03;;;;;;;6.97;3.55;;;19.10;63.10;;;;;;5041848;28;20151;-61
2022/05/06 07:56:31;;;;;;;8.68;3.85;;;19.10;63.10;;;;;;5038844;28;20029;-61
2022/05/06 07:58:57;;;;;;;7.55;4.15;;;19.10;63.00;;;;;;5037994;28;20028;-61
2022/05/06 08:06:51;;;;;;;6.47;3.47;;;19.10;63.10;;;;;;5038351;28;20055;-61
2022/05/06 08:09:17;;;;;;;8.13;3.70;;;19.10;63.10;;;;;;5037619;28;20452;-61
2022/05/06 08:11:43;;;;;;;12.10;3.75;;;19.10;63.00;;;;;;5040666;28;20083;-62
2022/05/06 08:14:08;;;;;;;8.73;3.97;;;19.10;63.10;;;;;;5047924;28;20068;-61
2022/05/06 08:16:34;;;;;;;8.35;4.10;;;19.10;63.20;;;;;;5042557;28;20550;-61
2022/05/06 08:19:00;;;;;;;8.13;4.00;;;19.10;63.10;;;;;;5045285;28;20528;-61
2022/05/06 08:21:25;;;;;;;6.93;3.72;;;19.10;63.10;;;;;;5034714;28;20037;-61
2022/05/06 08:23:52;;;;;;;8.73;3.63;;;19.10;64.20;;;;;;5034932;28;20036;-61
2022/05/06 08:26:18;;;;;;;7.75;4.18;;;19.10;63.10;;;;;;5039418;28;20072;-61
2022/05/06 08:28:44;;;;;;;7.28;3.40;;;19.10;63.20;;;;;;5042918;28;20450;-61
2022/05/06 08:31:10;;;;;;;7.47;3.70;;;19.10;63.10;;;;;;5043687;28;20051;-62
2022/05/06 08:33:35;;;;;;;7.15;3.80;;;19.10;63.20;;;;;;5041111;28;20798;-61
2022/05/06 08:36:01;;;;;;;6.07;3.50;;;19.10;63.00;;;;;;5036894;28;20035;-61
2022/05/06 08:38:27;;;;;;;7.20;3.92;;;19.10;63.00;;;;;;5035842;28;20110;-61
2022/05/06 08:40:53;;;;;;;6.88;3.40;;;19.10;63.00;;;;;;5036033;28;20021;-61
2022/05/06 08:43:18;;;;;;;6.43;3.40;;;19.10;63.00;;;;;;5045851;28;20379;-61
2022/05/06 08:51:13;;;;;;;7.25;3.72;;;19.10;63.00;;;;;;5029834;28;20056;-61
2022/05/06 08:53:40;;;;;;;8.63;3.65;;;19.10;62.90;;;;;;5037688;28;20061;-61
2022/05/06 08:56:05;;;;;;;5.57;3.33;;;19.10;62.90;;;;;;5036451;28;20025;-61
2022/05/06 08:58:34;;;;;;;6.85;3.50;;;19.10;62.80;;;;;;5038598;28;20494;-61
2022/05/06 09:01:10;;;;;;;7.53;3.80;;;19.10;62.80;;;;;;5040160;28;20045;-61
2022/05/06 09:03:40;;;;;;;7.72;3.53;;;19.10;62.80;;;;;;5039069;28;20024;-61
2022/05/06 09:06:06;;;;;;;6.75;3.83;;;19.20;62.80;;;;;;5037753;28;20040;-61
2022/05/06 09:08:38;;;;;;;7.00;3.83;;;19.20;62.80;;;;;;5030947;28;20025;-61
2022/05/06 09:11:07;;;;;;;6.90;3.40;;;19.20;62.80;;;;;;5041544;28;20044;-61
2022/05/06 09:13:35;;;;;;;6.30;3.40;;;19.20;62.80;;;;;;5037250;28;20044;-61
2022/05/06 09:19:15;;;;;;;6.50;3.40;;;19.20;62.70;;;;;;5043279;28;20406;-61
2022/05/06 09:21:58;;;;;;;8.18;3.35;;;19.20;62.70;;;;;;5039406;28;20490;-61
2022/05/06 09:24:25;;;;;;;8.50;3.72;;;19.20;62.70;;;;;;5036822;28;20016;-61
2022/05/06 09:27:07;;;;;;;7.88;3.70;;;19.20;62.70;;;;;;5040688;28;20068;-61
2022/05/06 09:29:35;;;;;;;8.38;3.53;;;19.20;62.70;;;;;;5045877;28;20033;-61
2022/05/06 09:32:20;;;;;;;7.43;3.92;;;19.20;62.70;;;;;;5036164;28;20032;-61
2022/05/06 09:34:56;;;;;;;7.05;3.90;;;19.30;62.70;;;;;;5045956;28;20029;-61
2022/05/06 09:37:38;;;;;;;7.18;3.60;;;19.30;62.80;;;;;;5040662;28;20037;-62
2022/05/06 09:40:18;;;;;;;7.00;3.75;;;19.30;62.70;;;;;;5042661;28;20064;-61
2022/05/06 09:42:57;;;;;;;8.07;3.58;;;19.30;62.80;;;;;;5043197;28;20081;-61
2022/05/06 09:45:38;;;;;;;7.40;3.45;;;19.30;62.70;;;;;;5036579;28;20140;-61
2022/05/06 09:48:04;;;;;;;6.65;3.65;;;19.30;62.80;;;;;;5037531;28;20033;-61
2022/05/06 09:50:36;;;;;;;5.85;3.40;;;19.30;62.80;;;;;;5042808;28;20057;-61
2022/05/06 09:53:02;;;;;;;6.25;3.80;;;19.30;62.70;;;;;;5046749;28;20035;-61
2022/05/06 09:55:28;;;;;;;6.50;3.45;;;19.30;62.70;;;;;;5033875;28;20485;-61
2022/05/06 09:57:55;;;;;;;6.40;3.40;;;19.30;62.80;;;;;;5041661;28;20505;-61
2022/05/06 10:00:21;;;;;;;6.60;3.45;;;19.40;62.80;;;;;;5066097;28;20021;-61
2022/05/06 10:02:47;;;;;;;6.88;3.70;;;19.40;62.80;;;;;;5046799;28;20025;-61
2022/05/06 10:05:13;;;;;;;6.75;4.00;;;19.40;62.80;;;;;;5041336;28;20117;-61
2022/05/06 10:07:42;;;;;;;8.40;4.28;;;19.40;62.70;;;;;;5047721;28;20021;-61
2022/05/06 10:10:09;;;;;;;6.25;3.78;;;19.40;62.80;;;;;;5040946;28;20104;-61
2022/05/06 10:12:40;;;;;;;6.45;3.65;;;19.40;62.70;;;;;;5037242;28;20021;-61
2022/05/06 10:15:08;;;;;;;6.68;3.53;;;19.50;62.80;;;;;;5033043;28;20071;-61
2022/05/06 10:17:48;;;;;;;6.78;3.65;;;19.40;62.70;;;;;;5023698;28;20057;-61
2022/05/06 10:20:35;;;;;;;7.60;3.58;;;19.50;62.70;;;;;;5037479;28;20045;-61
2022/05/06 10:23:07;;;;;;;9.18;4.25;;;19.50;62.70;;;;;;5042725;28;20537;-61
2022/05/06 10:25:42;;;;;;;6.78;3.38;;;19.50;62.70;;;;;;5038138;28;20406;-61
2022/05/06 10:34:23;;;;;;;6.63;3.72;;;19.60;62.50;;;;;;5035537;28;20092;-61
2022/05/06 10:36:53;;;;;;;7.95;3.92;;;19.60;62.60;;;;;;5034842;28;20520;-61
2022/05/06 10:39:24;;;;;;;5.95;3.63;;;19.60;62.50;;;;;;5030964;28;20176;-61
2022/05/06 10:42:18;;;;;;;6.70;3.72;;;19.60;62.50;;;;;;5030242;28;20208;-61
2022/05/06 10:44:44;;;;;;;7.18;3.15;;;19.60;62.40;;;;;;5035186;28;20565;-61
2022/05/06 10:47:12;;;;;;;5.40;3.40;;;19.60;62.40;;;;;;5039169;28;20044;-61
2022/05/06 10:49:38;;;;;;;8.13;3.55;;;19.70;62.30;;;;;;5037568;28;20550;-61
2022/05/06 10:52:15;;;;;;;6.65;3.50;;;19.70;62.30;;;;;;5038409;28;20116;-61
2022/05/06 10:54:41;;;;;;;6.25;3.72;;;19.70;62.20;;;;;;5036964;28;20067;-61
2022/05/06 10:57:08;;;;;;;7.03;3.58;;;19.80;62.20;;;;;;5040116;28;20491;-61
2022/05/06 10:59:53;;;;;;;7.10;3.63;;;19.80;62.10;;;;;;5036042;28;20037;-61
2022/05/06 11:02:21;;;;;;;5.50;3.38;;;19.80;62.20;;;;;;5034059;28;20041;-61
2022/05/06 11:04:50;;;;;;;7.35;3.50;;;19.70;62.20;;;;;;5037563;28;20025;-61
2022/05/06 11:07:17;;;;;;;6.28;3.40;;;19.80;62.10;;;;;;5042075;28;20035;-61
2022/05/06 11:09:43;;;;;;;6.47;3.58;;;19.80;62.10;;;;;;5037930;28;20052;-61
2022/05/06 11:12:09;;;;;;;7.40;3.55;;;19.80;62.00;;;;;;5035736;28;20024;-61
2022/05/06 11:14:34;;;;;;;6.10;3.67;;;19.80;62.00;;;;;;5047189;28;20249;-61
2022/05/06 11:17:16;;;;;;;6.10;3.40;;;19.80;62.00;;;;;;5041333;28;20121;-61
2022/05/06 11:19:42;;;;;;;7.28;3.50;;;19.80;62.00;;;;;;5045023;28;20035;-61
2022/05/06 11:22:08;;;;;;;5.93;3.40;;;19.90;61.80;;;;;;5034044;28;20029;-61
2022/05/06 11:24:34;;;;;;;5.78;3.40;;;19.80;61.70;;;;;;5042146;28;20041;-62
2022/05/06 11:27:19;;;;;;;6.20;3.42;;;19.90;61.90;;;;;;5038473;28;20030;-62
2022/05/06 11:29:45;;;;;;;;;;;19.90;62.00;;;;;;5034645;28;20033;-61
2022/05/06 11:32:11;;;;;;;5.88;3.42;;;19.90;62.00;;;;;;5041730;28;20361;-61
2022/05/06 11:34:37;;;;;;;5.95;3.40;;;19.90;61.90;;;;;;5042467;28;20025;-60
2022/05/06 11:37:03;;;;;;;5.78;3.33;;;19.90;61.90;;;;;;5067323;28;20542;-61
2022/05/06 11:39:32;;;;;;;5.97;3.50;;;19.90;61.80;;;;;;5047661;28;20589;-61
2022/05/06 11:42:17;;;;;;;6.10;3.47;;;19.90;61.60;;;;;;5038186;28;20032;-61
2022/05/06 11:47:27;;;;;;;5.47;3.42;;;20.00;61.60;;;;;;5035518;28;20540;-61
2022/05/06 11:49:52;;;;;;;5.55;3.35;;;20.00;61.70;;;;;;5052110;28;20061;-61
2022/05/06 11:52:18;;;;;;;7.13;3.28;;;20.00;61.80;;;;;;5072115;28;20033;-61
2022/05/06 11:54:43;;;;;;;5.70;3.30;;;20.00;61.70;;;;;;5050854;28;20035;-61
2022/05/06 11:57:10;;;;;;;6.30;3.60;;;20.00;61.80;;;;;;5049453;28;20033;-61
2022/05/06 11:59:36;;;;;;;7.15;3.38;;;20.10;61.80;;;;;;5041034;28;20029;-61
2022/05/06 12:02:06;;;;;;;6.55;3.45;;;20.10;62.70;;;;;;5067778;28;20029;-61
2022/05/06 12:04:32;;;;;;;6.20;3.50;;;20.10;61.80;;;;;;5048565;28;20018;-61
2022/05/06 12:06:58;;;;;;;5.97;3.53;;;20.10;61.60;;;;;;5047373;28;20083;-61
2022/05/06 12:09:28;;;;;;;5.97;3.00;;;20.10;61.80;;;;;;5039142;28;20064;-61
2022/05/06 12:12:10;;;;;;;7.35;3.80;;;20.20;61.60;;;;;;5034595;28;20022;-61
2022/05/06 12:14:37;;;;;;;6.50;3.42;;;20.20;61.70;;;;;;5041580;28;20529;-61
2022/05/06 12:17:04;;;;;;;6.00;3.40;;;20.20;61.70;;;;;;5035108;28;20461;-61
2022/05/06 12:19:48;;;;;;;6.25;3.28;;;20.20;61.60;;;;;;5041931;28;20063;-61
2022/05/06 12:22:16;;;;;;;7.97;3.45;;;20.20;61.50;;;;;;5043616;28;20032;-61
2022/05/06 12:24:45;;;;;;;5.70;3.28;;;20.20;61.50;;;;;;5035442;28;20083;-61
2022/05/06 12:27:11;;;;;;;5.55;3.08;;;20.30;61.60;;;;;;5036763;28;20028;-61
2022/05/06 12:29:38;;;;;;;5.93;3.42;;;20.30;61.60;;;;;;5036031;28;20034;-62
2022/05/06 12:32:04;;;;;;;5.07;3.20;;;20.30;61.60;;;;;;5033590;28;20025;-61
2022/05/06 12:34:31;;;;;;;5.35;3.13;;;20.30;61.60;;;;;;5040943;28;20413;-61
2022/05/06 12:37:15;;;;;;;5.95;3.53;;;20.30;61.60;;;;;;5040952;28;20099;-61
2022/05/06 12:39:45;;;;;;;5.53;3.20;;;20.40;61.60;;;;;;5033365;28;20029;-62
2022/05/06 12:42:20;;;;;;;5.57;3.25;;;20.40;61.50;;;;;;5038884;28;20052;-61
2022/05/06 12:44:47;;;;;;;6.00;3.35;;;20.40;61.50;;;;;;5038391;28;20139;-61
2022/05/06 12:50:04;;;;;;;4.82;3.00;;;20.40;61.40;;;;;;5024367;28;20049;-61
2022/05/06 12:52:31;;;;;;;5.97;3.22;;;20.40;61.30;;;;;;5031980;28;20072;-61
2022/05/06 12:54:57;;;;;;;5.82;3.30;;;20.50;61.30;;;;;;5027971;28;20479;-61
2022/05/06 12:57:25;;;;;;;6.72;3.70;;;20.50;61.30;;;;;;5025093;28;20599;-61
2022/05/06 12:59:51;;;;;;;7.00;3.58;;;20.50;61.30;;;;;;5025774;28;20033;-61
2022/05/06 13:02:17;;;;;;;5.53;3.10;;;20.50;61.20;;;;;;5028370;28;20173;-61
2022/05/06 13:04:42;;;;;;;5.30;3.10;;;20.60;61.20;;;;;;5029091;28;20033;-61
2022/05/06 13:07:08;;;;;;;6.40;3.40;;;20.60;61.10;;;;;;5028513;28;20050;-61
2022/05/06 13:09:34;;;;;;;6.70;3.65;;;20.60;61.10;;;;;;5027892;28;20124;-61
2022/05/06 13:12:00;;;;;;;6.25;3.63;;;20.60;61.10;;;;;;5025578;28;20089;-61
2022/05/06 13:14:25;;;;;;;6.30;3.63;;;20.60;61.00;;;;;;5033101;28;20041;-61
2022/05/06 13:16:51;;;;;;;6.20;3.35;;;20.70;61.00;;;;;;5029239;28;20021;-62
2022/05/06 13:19:17;;;;;;;5.65;3.58;;;20.70;61.00;;;;;;5025913;28;20441;-61
2022/05/06 13:21:43;;;;;;;5.15;3.00;;;20.70;61.00;;;;;;5026269;28;20087;-61
2022/05/06 13:24:08;;;;;;;6.93;3.35;;;20.80;61.00;;;;;;5025093;28;20045;-62
2022/05/06 13:26:37;;;;;;;6.18;3.50;;;20.80;60.90;;;;;;5032120;28;20048;-61
2022/05/06 13:29:04;;;;;;;6.15;3.50;;;20.80;60.90;;;;;;5039324;28;20486;-61
2022/05/06 13:31:29;;;;;;;5.25;3.20;;;20.80;60.80;;;;;;5036439;28;20036;-62
2022/05/06 13:33:55;;;;;;;6.68;3.47;;;20.80;60.80;;;;;;5046671;28;20024;-61